Time,TemperatureF,DewpointF,PressureIn,WindDirection,WindDirectionDegrees,WindSpeedMPH,WindSpeedGustMPH,Humidity,HourlyPrecipIn,Conditions,Clouds,dailyrainin,SoftwareType,DateUTC
2013-07-06 00:01:00,75.6,73.4,30.09,SE,129,0.0,7.0,93,-0.16,,,0.00,Weather View 32 v70,2013-07-06 04:01:00,
2013-07-06 00:02:00,75.6,73.4,30.09,SE,129,0.0,7.0,93,-0.16,,,0.00,Weather View 32 v70,2013-07-06 04:02:00,
2013-07-06 00:07:00,75.5,73.3,30.09,SE,129,0.0,7.0,93,-0.16,,,0.00,Weather View 32 v70,2013-07-06 04:07:00,
2013-07-06 00:12:00,75.6,73.7,30.09,SE,129,0.0,5.0,94,-0.16,,,0.00,Weather View 32 v70,2013-07-06 04:12:00,
2013-07-06 00:17:00,75.6,73.7,30.09,SE,129,0.0,4.0,94,-0.16,,,0.00,Weather View 32 v70,2013-07-06 04:17:00,
2013-07-06 00:22:00,75.5,73.6,30.09,SE,129,0.0,1.0,94,-0.16,,,0.00,Weather View 32 v70,2013-07-06 04:22:00,
2013-07-06 00:27:00,75.5,73.6,30.09,SE,129,0.0,1.0,94,-0.16,,,0.00,Weather View 32 v70,2013-07-06 04:27:00,
2013-07-06 00:32:00,75.4,73.5,30.09,SE,129,0.0,1.0,94,-0.16,,,0.00,Weather View 32 v70,2013-07-06 04:32:00,
2013-07-06 00:37:00,75.4,73.5,30.09,SE,129,0.0,1.0,94,-0.16,,,0.00,Weather View 32 v70,2013-07-06 04:37:00,
2013-07-06 00:42:00,75.3,73.4,30.08,SE,129,0.0,1.0,94,-0.16,,,0.00,Weather View 32 v70,2013-07-06 04:42:00,
2013-07-06 00:47:00,75.3,73.4,30.08,SE,129,0.0,1.0,94,-0.16,,,0.00,Weather View 32 v70,2013-07-06 04:47:00,
2013-07-06 00:52:00,75.2,73.3,30.08,SE,129,0.0,1.0,94,-0.16,,,0.00,Weather View 32 v70,2013-07-06 04:52:00,
2013-07-06 00:57:00,75.1,73.2,30.08,SE,129,0.0,1.0,94,0.00,,,0.00,Weather View 32 v70,2013-07-06 04:57:00,
2013-07-06 01:02:00,75.1,73.2,30.08,SE,129,0.0,1.0,94,0.00,,,0.00,Weather View 32 v70,2013-07-06 05:02:00,
2013-07-06 01:07:00,75.0,73.1,30.08,SE,129,0.0,1.0,94,0.00,,,0.00,Weather View 32 v70,2013-07-06 05:07:00,
2013-07-06 01:12:00,74.9,73.0,30.07,SE,129,0.0,0.0,94,0.00,,,0.00,Weather View 32 v70,2013-07-06 05:12:00,
2013-07-06 01:17:00,74.9,73.0,30.07,SE,129,0.0,0.0,94,0.00,,,0.00,Weather View 32 v70,2013-07-06 05:17:00,
2013-07-06 01:22:00,74.9,73.0,30.07,SE,129,0.0,0.0,94,0.00,,,0.00,Weather View 32 v70,2013-07-06 05:22:00,
2013-07-06 01:27:00,74.9,73.0,30.07,SE,129,0.0,0.0,94,0.00,,,0.00,Weather View 32 v70,2013-07-06 05:27:00,
2013-07-06 01:32:00,74.8,72.9,30.07,SE,129,0.0,1.0,94,0.00,,,0.00,Weather View 32 v70,2013-07-06 05:32:00,
2013-07-06 01:37:00,74.7,72.8,30.07,SE,129,2.0,2.0,94,0.00,,,0.00,Weather View 32 v70,2013-07-06 05:37:00,
2013-07-06 01:42:00,74.7,72.8,30.07,SE,129,2.0,2.0,94,0.00,,,0.00,Weather View 32 v70,2013-07-06 05:42:00,
2013-07-06 01:47:00,74.6,72.8,30.07,SE,129,0.0,2.0,94,0.00,,,0.00,Weather View 32 v70,2013-07-06 05:47:00,
2013-07-06 01:52:00,74.5,73.0,30.07,SE,129,0.0,2.0,95,0.00,,,0.00,Weather View 32 v70,2013-07-06 05:52:00,
2013-07-06 01:57:00,74.4,72.9,30.07,SE,129,0.0,2.0,95,0.00,,,0.00,Weather View 32 v70,2013-07-06 05:57:00,
2013-07-06 02:02:00,74.3,72.8,30.07,SE,129,2.0,2.0,95,0.00,,,0.00,Weather View 32 v70,2013-07-06 06:02:00,
2013-07-06 02:07:00,74.3,72.8,30.07,SE,128,1.0,3.0,95,0.00,,,0.00,Weather View 32 v70,2013-07-06 06:07:00,
2013-07-06 02:12:00,74.2,72.7,30.06,SE,128,0.0,4.0,95,0.00,,,0.00,Weather View 32 v70,2013-07-06 06:12:00,
2013-07-06 02:17:00,74.2,72.4,30.06,SE,128,0.0,4.0,94,0.00,,,0.00,Weather View 32 v70,2013-07-06 06:17:00,
2013-07-06 02:22:00,74.1,72.3,30.06,SE,128,0.0,4.0,94,0.00,,,0.00,Weather View 32 v70,2013-07-06 06:22:00,
2013-07-06 02:27:00,74.0,72.2,30.06,SE,128,0.0,4.0,94,0.00,,,0.00,Weather View 32 v70,2013-07-06 06:27:00,
2013-07-06 02:32:00,74.0,72.2,30.06,SE,128,0.0,4.0,94,0.00,,,0.00,Weather View 32 v70,2013-07-06 06:32:00,
2013-07-06 02:37:00,74.0,72.2,30.05,SE,128,0.0,4.0,94,0.00,,,0.00,Weather View 32 v70,2013-07-06 06:37:00,
2013-07-06 02:42:00,73.9,72.1,30.05,SE,128,0.0,4.0,94,0.00,,,0.00,Weather View 32 v70,2013-07-06 06:42:00,
2013-07-06 02:47:00,73.9,72.1,30.05,SE,128,0.0,4.0,94,0.00,,,0.00,Weather View 32 v70,2013-07-06 06:47:00,
2013-07-06 02:52:00,73.8,72.3,30.04,SE,128,0.0,4.0,95,0.00,,,0.00,Weather View 32 v70,2013-07-06 06:52:00,
2013-07-06 02:57:00,73.7,72.2,30.04,SE,128,2.0,4.0,95,0.00,,,0.00,Weather View 32 v70,2013-07-06 06:57:00,
2013-07-06 03:02:00,73.7,72.2,30.04,SE,128,0.0,4.0,95,0.00,,,0.00,Weather View 32 v70,2013-07-06 07:02:00,
2013-07-06 03:07:00,73.6,72.1,30.04,SE,128,0.0,4.0,95,0.00,,,0.00,Weather View 32 v70,2013-07-06 07:07:00,
2013-07-06 03:12:00,73.6,72.1,30.04,SE,128,0.0,3.0,95,0.00,,,0.00,Weather View 32 v70,2013-07-06 07:12:00,
2013-07-06 03:17:00,73.6,72.1,30.04,SE,128,0.0,3.0,95,0.00,,,0.00,Weather View 32 v70,2013-07-06 07:17:00,
2013-07-06 03:22:00,73.5,71.7,30.04,SE,128,0.0,3.0,94,0.00,,,0.00,Weather View 32 v70,2013-07-06 07:22:00,
2013-07-06 03:27:00,73.5,71.7,30.04,SE,128,0.0,3.0,94,0.00,,,0.00,Weather View 32 v70,2013-07-06 07:27:00,
2013-07-06 03:32:00,73.5,72.0,30.04,SE,128,1.0,3.0,95,0.00,,,0.00,Weather View 32 v70,2013-07-06 07:32:00,
2013-07-06 03:37:00,73.6,72.1,30.04,SE,128,0.0,3.0,95,0.00,,,0.00,Weather View 32 v70,2013-07-06 07:37:00,
2013-07-06 03:42:00,73.6,72.1,30.04,SE,128,0.0,3.0,95,0.00,,,0.00,Weather View 32 v70,2013-07-06 07:42:00,
2013-07-06 03:47:00,73.6,72.1,30.04,SE,128,0.0,4.0,95,0.00,,,0.00,Weather View 32 v70,2013-07-06 07:47:00,
2013-07-06 03:52:00,73.5,72.0,30.04,SE,128,0.0,4.0,95,0.00,,,0.00,Weather View 32 v70,2013-07-06 07:52:00,
2013-07-06 03:57:00,73.5,72.0,30.04,SE,129,2.0,4.0,95,0.00,,,0.00,Weather View 32 v70,2013-07-06 07:57:00,
2013-07-06 04:02:00,73.5,72.0,30.04,ESE,122,0.0,4.0,95,0.00,,,0.00,Weather View 32 v70,2013-07-06 08:02:00,
2013-07-06 04:07:00,73.5,72.0,30.04,ESE,122,2.0,4.0,95,0.00,,,0.00,Weather View 32 v70,2013-07-06 08:07:00,
2013-07-06 04:12:00,73.5,72.0,30.03,ESE,122,0.0,4.0,95,0.00,,,0.00,Weather View 32 v70,2013-07-06 08:12:00,
2013-07-06 04:17:00,73.4,71.9,30.04,ESE,121,0.0,4.0,95,0.00,,,0.00,Weather View 32 v70,2013-07-06 08:17:00,
2013-07-06 04:22:00,73.4,71.9,30.03,ESE,121,0.0,4.0,95,0.00,,,0.00,Weather View 32 v70,2013-07-06 08:22:00,
2013-07-06 04:27:00,73.4,71.9,30.03,ESE,119,0.0,4.0,95,0.00,,,0.00,Weather View 32 v70,2013-07-06 08:27:00,
2013-07-06 04:32:00,73.4,71.9,30.04,ESE,120,0.0,4.0,95,0.00,,,0.00,Weather View 32 v70,2013-07-06 08:32:00,
2013-07-06 04:37:00,73.5,72.0,30.03,ESE,118,0.0,4.0,95,0.00,,,0.00,Weather View 32 v70,2013-07-06 08:37:00,
2013-07-06 04:42:00,73.5,72.0,30.03,ESE,118,0.0,4.0,95,0.00,,,0.00,Weather View 32 v70,2013-07-06 08:42:00,
2013-07-06 04:47:00,73.5,72.0,30.03,ESE,118,1.0,4.0,95,0.00,,,0.00,Weather View 32 v70,2013-07-06 08:47:00,
2013-07-06 04:52:00,73.6,72.1,30.03,ESE,117,1.0,4.0,95,0.00,,,0.00,Weather View 32 v70,2013-07-06 08:52:00,
2013-07-06 04:57:00,73.6,72.1,30.02,ESE,117,2.0,4.0,95,0.00,,,0.00,Weather View 32 v70,2013-07-06 08:57:00,
2013-07-06 05:02:00,73.6,72.1,30.02,ESE,118,1.0,4.0,95,0.00,,,0.00,Weather View 32 v70,2013-07-06 09:02:00,
2013-07-06 05:07:00,73.7,72.2,30.02,ESE,110,0.0,5.0,95,0.00,,,0.00,Weather View 32 v70,2013-07-06 09:07:00,
2013-07-06 05:12:00,73.9,72.4,30.02,ESE,109,0.0,5.0,95,0.00,,,0.00,Weather View 32 v70,2013-07-06 09:12:00,
2013-07-06 05:17:00,74.0,72.5,30.02,East,100,5.0,7.0,95,0.00,,,0.00,Weather View 32 v70,2013-07-06 09:17:00,
2013-07-06 05:22:00,74.2,72.7,30.02,East,91,2.0,7.0,95,0.00,,,0.00,Weather View 32 v70,2013-07-06 09:22:00,
2013-07-06 05:27:00,74.2,72.7,30.02,ESE,121,2.0,7.0,95,0.00,,,0.00,Weather View 32 v70,2013-07-06 09:27:00,
2013-07-06 05:32:00,74.2,72.7,30.02,ESE,116,3.0,7.0,95,0.00,,,0.00,Weather View 32 v70,2013-07-06 09:32:00,
2013-07-06 05:37:00,74.1,72.6,30.02,ESE,116,2.0,7.0,95,0.00,,,0.00,Weather View 32 v70,2013-07-06 09:37:00,
2013-07-06 05:42:00,74.1,72.6,30.02,East,97,1.0,7.0,95,0.00,,,0.00,Weather View 32 v70,2013-07-06 09:42:00,
2013-07-06 05:47:00,74.1,72.6,30.02,East,89,2.0,7.0,95,0.00,,,0.00,Weather View 32 v70,2013-07-06 09:47:00,
2013-07-06 05:52:00,74.1,72.6,30.02,East,97,2.0,7.0,95,0.00,,,0.00,Weather View 32 v70,2013-07-06 09:52:00,
2013-07-06 05:57:00,74.0,72.5,30.02,East,98,0.0,7.0,95,0.00,,,0.00,Weather View 32 v70,2013-07-06 09:57:00,
2013-07-06 06:02:00,74.0,72.5,30.02,East,98,2.0,7.0,95,0.00,,,0.00,Weather View 32 v70,2013-07-06 10:02:00,
2013-07-06 06:07:00,74.0,72.5,30.02,ESE,105,0.0,7.0,95,0.00,,,0.00,Weather View 32 v70,2013-07-06 10:07:00,
2013-07-06 06:12:00,74.1,72.6,30.02,ESE,105,0.0,7.0,95,0.00,,,0.00,Weather View 32 v70,2013-07-06 10:12:00,
2013-07-06 06:17:00,74.0,72.5,30.02,ESE,105,0.0,7.0,95,0.00,,,0.00,Weather View 32 v70,2013-07-06 10:17:00,
2013-07-06 06:22:00,74.0,72.5,30.02,ESE,105,0.0,7.0,95,0.00,,,0.00,Weather View 32 v70,2013-07-06 10:22:00,
2013-07-06 06:27:00,74.0,72.5,30.02,ESE,105,0.0,7.0,95,0.00,,,0.00,Weather View 32 v70,2013-07-06 10:27:00,
2013-07-06 06:32:00,74.0,72.5,30.02,ESE,105,0.0,7.0,95,0.00,,,0.00,Weather View 32 v70,2013-07-06 10:32:00,
2013-07-06 06:37:00,74.0,72.5,30.02,ESE,105,1.0,6.0,95,0.00,,,0.00,Weather View 32 v70,2013-07-06 10:37:00,
2013-07-06 06:43:00,74.0,72.5,30.03,ESE,105,0.0,6.0,95,0.00,,,0.00,Weather View 32 v70,2013-07-06 10:43:00,
2013-07-06 06:48:00,74.0,72.5,30.03,ESE,105,0.0,6.0,95,0.00,,,0.00,Weather View 32 v70,2013-07-06 10:48:00,
2013-07-06 06:53:00,74.1,72.6,30.03,ESE,105,0.0,5.0,95,0.00,,,0.00,Weather View 32 v70,2013-07-06 10:53:00,
2013-07-06 06:58:00,74.1,72.6,30.03,East,101,3.0,6.0,95,0.00,,,0.00,Weather View 32 v70,2013-07-06 10:58:00,
2013-07-06 07:03:00,74.2,72.7,30.03,SE,132,0.0,8.0,95,0.00,,,0.00,Weather View 32 v70,2013-07-06 11:03:00,
2013-07-06 07:08:00,74.3,72.8,30.04,SE,132,0.0,8.0,95,0.00,,,0.00,Weather View 32 v70,2013-07-06 11:08:00,
2013-07-06 07:13:00,74.4,72.9,30.04,SE,136,0.0,8.0,95,0.00,,,0.00,Weather View 32 v70,2013-07-06 11:13:00,
2013-07-06 07:18:00,74.5,73.0,30.04,SE,134,0.0,8.0,95,0.00,,,0.00,Weather View 32 v70,2013-07-06 11:18:00,
2013-07-06 07:23:00,74.6,73.1,30.04,ESE,117,2.0,8.0,95,0.00,,,0.00,Weather View 32 v70,2013-07-06 11:23:00,
2013-07-06 07:28:00,74.8,73.3,30.04,ESE,117,0.0,8.0,95,0.00,,,0.00,Weather View 32 v70,2013-07-06 11:28:00,
2013-07-06 07:33:00,75.0,73.5,30.04,East,96,1.0,8.0,95,0.00,,,0.00,Weather View 32 v70,2013-07-06 11:33:00,
2013-07-06 07:38:00,75.3,73.8,30.05,ESE,112,0.0,8.0,95,0.00,,,0.00,Weather View 32 v70,2013-07-06 11:38:00,
2013-07-06 07:43:00,75.5,74.0,30.05,SE,134,4.0,8.0,95,0.00,,,0.00,Weather View 32 v70,2013-07-06 11:43:00,
2013-07-06 07:48:00,75.8,74.3,30.05,ESE,109,1.0,8.0,95,0.00,,,0.00,Weather View 32 v70,2013-07-06 11:48:00,
2013-07-06 07:53:00,76.1,74.6,30.06,ESE,123,3.0,8.0,95,0.00,,,0.00,Weather View 32 v70,2013-07-06 11:53:00,
2013-07-06 07:58:00,76.3,74.8,30.06,ESE,111,2.0,8.0,95,0.00,,,0.00,Weather View 32 v70,2013-07-06 11:58:00,
2013-07-06 08:03:00,76.6,75.1,30.06,ESE,120,3.0,9.0,95,0.00,,,0.00,Weather View 32 v70,2013-07-06 12:03:00,
2013-07-06 08:08:00,76.9,75.0,30.06,ESE,121,0.0,9.0,94,0.00,,,0.00,Weather View 32 v70,2013-07-06 12:08:00,
2013-07-06 08:13:00,77.4,75.5,30.06,SE,136,4.0,9.0,94,0.00,,,0.00,Weather View 32 v70,2013-07-06 12:13:00,
2013-07-06 08:18:00,77.8,75.9,30.06,SE,130,7.0,9.0,94,0.00,,,0.00,Weather View 32 v70,2013-07-06 12:18:00,
2013-07-06 08:23:00,78.3,76.1,30.07,ESE,117,3.0,9.0,93,0.00,,,0.00,Weather View 32 v70,2013-07-06 12:23:00,
2013-07-06 08:28:00,78.7,76.2,30.07,ESE,111,2.0,9.0,92,0.00,,,0.00,Weather View 32 v70,2013-07-06 12:28:00,
2013-07-06 08:33:00,79.1,76.2,30.07,ENE,78,5.0,9.0,91,0.00,,,0.00,Weather View 32 v70,2013-07-06 12:33:00,
2013-07-06 08:38:00,79.4,76.2,30.06,SSE,150,2.0,12.0,90,0.00,,,0.00,Weather View 32 v70,2013-07-06 12:38:00,
2013-07-06 08:43:00,79.8,76.6,30.07,ESE,121,0.0,12.0,90,0.00,,,0.00,Weather View 32 v70,2013-07-06 12:43:00,
2013-07-06 08:48:00,80.1,76.5,30.06,SE,129,7.0,12.0,89,0.00,,,0.00,Weather View 32 v70,2013-07-06 12:48:00,
2013-07-06 08:53:00,80.4,76.5,30.06,SE,133,4.0,12.0,88,0.00,,,0.00,Weather View 32 v70,2013-07-06 12:53:00,
2013-07-06 08:58:00,80.7,76.4,30.07,SE,134,5.0,12.0,87,0.00,,,0.00,Weather View 32 v70,2013-07-06 12:58:00,
2013-07-06 09:03:00,80.9,76.6,30.07,SE,126,5.0,12.0,87,0.00,,,0.00,Weather View 32 v70,2013-07-06 13:03:00,
2013-07-06 09:08:00,81.1,76.8,30.07,ESE,122,3.0,12.0,87,0.00,,,0.00,Weather View 32 v70,2013-07-06 13:08:00,
2013-07-06 09:13:00,81.4,77.1,30.07,ESE,119,5.0,13.0,87,0.00,,,0.00,Weather View 32 v70,2013-07-06 13:13:00,
2013-07-06 09:18:00,81.6,77.0,30.07,SE,132,2.0,14.0,86,0.00,,,0.00,Weather View 32 v70,2013-07-06 13:18:00,
2013-07-06 09:23:00,82.1,77.1,30.07,ESE,111,4.0,14.0,85,0.00,,,0.00,Weather View 32 v70,2013-07-06 13:23:00,
2013-07-06 09:28:00,82.4,77.4,30.07,SE,126,8.0,14.0,85,0.00,,,0.00,Weather View 32 v70,2013-07-06 13:28:00,
2013-07-06 09:33:00,82.5,77.2,30.07,SE,142,4.0,14.0,84,0.00,,,0.00,Weather View 32 v70,2013-07-06 13:33:00,
2013-07-06 09:38:00,83.0,77.3,30.08,SE,128,6.0,14.0,83,0.00,,,0.00,Weather View 32 v70,2013-07-06 13:38:00,
2013-07-06 09:43:00,83.3,77.6,30.08,ESE,121,4.0,14.0,83,0.00,,,0.00,Weather View 32 v70,2013-07-06 13:43:00,
2013-07-06 09:48:00,83.4,76.9,30.08,SE,144,2.0,15.0,81,0.00,,,0.00,Weather View 32 v70,2013-07-06 13:48:00,
2013-07-06 09:53:00,83.4,77.3,30.08,SE,126,4.0,15.0,82,0.00,,,0.00,Weather View 32 v70,2013-07-06 13:53:00,
2013-07-06 09:58:00,83.7,77.2,30.08,SE,128,8.0,15.0,81,0.00,,,0.00,Weather View 32 v70,2013-07-06 13:58:00,
2013-07-06 10:03:00,84.0,77.5,30.08,SE,141,5.0,15.0,81,0.00,,,0.00,Weather View 32 v70,2013-07-06 14:03:00,
2013-07-06 10:08:00,84.1,77.2,30.08,SE,124,4.0,18.0,80,0.00,,,0.00,Weather View 32 v70,2013-07-06 14:08:00,
2013-07-06 10:13:00,83.8,76.9,30.08,ESE,121,0.0,18.0,80,0.00,,,0.00,Weather View 32 v70,2013-07-06 14:13:00,
2013-07-06 10:18:00,83.6,76.7,30.08,SE,136,10.0,18.0,80,0.00,,,0.00,Weather View 32 v70,2013-07-06 14:18:00,
2013-07-06 10:23:00,83.5,76.6,30.08,SE,136,3.0,18.0,80,0.00,,,0.00,Weather View 32 v70,2013-07-06 14:23:00,
2013-07-06 10:28:00,83.5,76.6,30.08,SE,135,0.0,18.0,80,0.00,,,0.00,Weather View 32 v70,2013-07-06 14:28:00,
2013-07-06 10:33:00,84.1,77.2,30.08,SE,134,7.0,18.0,80,0.00,,,0.00,Weather View 32 v70,2013-07-06 14:33:00,
2013-07-06 10:38:00,84.6,76.6,30.08,SE,134,5.0,18.0,77,0.00,,,0.00,Weather View 32 v70,2013-07-06 14:38:00,
2013-07-06 10:43:00,85.1,77.0,30.08,SE,128,5.0,18.0,77,0.00,,,0.00,Weather View 32 v70,2013-07-06 14:43:00,
2013-07-06 10:48:00,85.6,77.1,30.08,ESE,105,8.0,18.0,76,0.00,,,0.00,Weather View 32 v70,2013-07-06 14:48:00,
2013-07-06 10:53:00,85.9,77.4,30.08,South,172,4.0,18.0,76,0.00,,,0.00,Weather View 32 v70,2013-07-06 14:53:00,
2013-07-06 10:58:00,86.3,77.4,30.08,ESE,118,11.0,18.0,75,0.00,,,0.00,Weather View 32 v70,2013-07-06 14:58:00,
2013-07-06 11:03:00,86.7,77.0,30.08,SE,130,6.0,18.0,73,0.00,,,0.00,Weather View 32 v70,2013-07-06 15:03:00,
2013-07-06 11:08:00,87.1,76.9,30.08,ESE,108,4.0,17.0,72,0.00,,,0.00,Weather View 32 v70,2013-07-06 15:08:00,
2013-07-06 11:14:00,87.2,77.0,30.08,SE,134,5.0,17.0,72,0.00,,,0.00,Weather View 32 v70,2013-07-06 15:14:00,
2013-07-06 11:19:00,87.1,76.5,30.08,SE,140,3.0,17.0,71,0.00,,,0.00,Weather View 32 v70,2013-07-06 15:19:00,
2013-07-06 11:23:00,87.2,77.0,30.08,SE,130,3.0,17.0,72,0.00,,,0.00,Weather View 32 v70,2013-07-06 15:23:00,
2013-07-06 11:29:00,87.6,76.6,30.07,SE,125,9.0,17.0,70,0.00,,,0.00,Weather View 32 v70,2013-07-06 15:29:00,
2013-07-06 11:34:00,87.9,76.8,30.08,ESE,123,4.0,17.0,70,0.00,,,0.00,Weather View 32 v70,2013-07-06 15:34:00,
2013-07-06 11:39:00,88.4,76.9,30.08,SE,133,3.0,16.0,69,0.00,,,0.00,Weather View 32 v70,2013-07-06 15:39:00,
2013-07-06 11:43:00,88.7,76.3,30.08,SE,133,1.0,16.0,67,0.00,,,0.00,Weather View 32 v70,2013-07-06 15:43:00,
2013-07-06 11:49:00,88.5,76.1,30.07,SE,133,7.0,16.0,67,0.00,,,0.00,Weather View 32 v70,2013-07-06 15:49:00,
2013-07-06 11:54:00,88.4,76.4,30.07,ESE,117,7.0,16.0,68,0.00,,,0.00,Weather View 32 v70,2013-07-06 15:54:00,
2013-07-06 11:59:00,88.6,76.6,30.07,SE,142,3.0,16.0,68,0.00,,,0.00,Weather View 32 v70,2013-07-06 15:59:00,
2013-07-06 12:04:00,88.7,76.7,30.08,SSW,198,5.0,16.0,68,0.00,,,0.00,Weather View 32 v70,2013-07-06 16:04:00,
2013-07-06 12:09:00,88.9,76.0,30.07,SE,127,2.0,16.0,66,0.00,,,0.00,Weather View 32 v70,2013-07-06 16:09:00,
2013-07-06 12:14:00,89.0,76.1,30.07,SE,126,4.0,16.0,66,0.00,,,0.00,Weather View 32 v70,2013-07-06 16:14:00,
2013-07-06 12:19:00,89.1,76.2,30.07,East,82,6.0,16.0,66,0.00,,,0.00,Weather View 32 v70,2013-07-06 16:19:00,
2013-07-06 12:24:00,89.1,76.2,30.07,East,98,2.0,16.0,66,0.00,,,0.00,Weather View 32 v70,2013-07-06 16:24:00,
2013-07-06 12:29:00,89.6,76.2,30.07,SE,128,1.0,14.0,65,0.00,,,0.00,Weather View 32 v70,2013-07-06 16:29:00,
2013-07-06 12:37:00,89.9,76.0,30.06,ESE,107,3.0,14.0,64,0.00,,,0.00,Weather View 32 v70,2013-07-06 16:37:00,
2013-07-06 12:42:00,90.1,75.7,30.07,ESE,121,9.0,14.0,63,0.00,,,0.00,Weather View 32 v70,2013-07-06 16:42:00,
2013-07-06 12:47:00,90.0,75.6,30.07,SE,138,3.0,16.0,63,0.00,,,0.00,Weather View 32 v70,2013-07-06 16:47:00,
2013-07-06 12:53:00,89.6,75.3,30.06,ESE,118,1.0,16.0,63,0.00,,,0.00,Weather View 32 v70,2013-07-06 16:53:00,
2013-07-06 12:58:00,90.1,76.2,30.06,SSW,205,2.0,16.0,64,0.00,,,0.00,Weather View 32 v70,2013-07-06 16:58:00,
2013-07-06 13:03:00,90.4,76.5,30.06,ESE,118,9.0,16.0,64,0.00,,,0.00,Weather View 32 v70,2013-07-06 17:03:00,
2013-07-06 13:08:00,90.4,76.0,30.06,SE,135,3.0,16.0,63,0.00,,,0.00,Weather View 32 v70,2013-07-06 17:08:00,
2013-07-06 13:13:00,90.5,76.6,30.06,SE,143,7.0,16.0,64,0.00,,,0.00,Weather View 32 v70,2013-07-06 17:13:00,
2013-07-06 13:20:00,90.9,76.5,30.05,SE,127,10.0,16.0,63,0.00,,,0.00,Weather View 32 v70,2013-07-06 17:20:00,
2013-07-06 13:25:00,91.1,76.7,30.06,SE,129,6.0,16.0,63,0.00,,,0.00,Weather View 32 v70,2013-07-06 17:25:00,
2013-07-06 13:30:00,91.4,76.0,30.06,NE,54,7.0,16.0,61,0.00,,,0.00,Weather View 32 v70,2013-07-06 17:30:00,
2013-07-06 13:35:00,91.3,75.9,30.05,ESE,122,7.0,16.0,61,0.00,,,0.00,Weather View 32 v70,2013-07-06 17:35:00,
2013-07-06 13:42:00,91.3,75.9,30.05,SE,133,2.0,16.0,61,0.00,,,0.00,Weather View 32 v70,2013-07-06 17:42:00,
2013-07-06 13:47:00,91.1,75.2,30.05,SE,133,8.0,13.0,60,0.00,,,0.00,Weather View 32 v70,2013-07-06 17:47:00,
2013-07-06 13:52:00,90.8,74.9,30.05,SE,130,4.0,13.0,60,0.00,,,0.00,Weather View 32 v70,2013-07-06 17:52:00,
2013-07-06 13:57:00,90.8,74.9,30.05,SE,133,3.0,13.0,60,0.00,,,0.00,Weather View 32 v70,2013-07-06 17:57:00,
2013-07-06 14:02:00,90.9,75.0,30.05,ENE,78,5.0,13.0,60,0.00,,,0.00,Weather View 32 v70,2013-07-06 18:02:00,
2013-07-06 14:07:00,91.3,76.4,30.05,SE,136,0.0,13.0,62,0.00,,,0.00,Weather View 32 v70,2013-07-06 18:07:00,
2013-07-06 14:12:00,91.9,74.9,30.05,SE,136,2.0,13.0,58,0.00,,,0.00,Weather View 32 v70,2013-07-06 18:12:00,
2013-07-06 14:17:00,92.2,76.2,30.05,SE,144,4.0,13.0,60,0.00,,,0.00,Weather View 32 v70,2013-07-06 18:17:00,
2013-07-06 14:24:00,92.1,75.1,30.05,East,86,8.0,13.0,58,0.00,,,0.00,Weather View 32 v70,2013-07-06 18:24:00,
2013-07-06 14:28:00,92.5,75.5,30.04,East,94,0.0,13.0,58,0.00,,,0.00,Weather View 32 v70,2013-07-06 18:28:00,
2013-07-06 14:33:00,93.2,76.1,30.04,SE,133,3.0,13.0,58,0.00,,,0.00,Weather View 32 v70,2013-07-06 18:33:00,
2013-07-06 14:38:00,93.7,75.6,30.04,ESE,115,0.0,13.0,56,0.00,,,0.00,Weather View 32 v70,2013-07-06 18:38:00,
2013-07-06 14:44:00,93.3,74.6,30.04,ESE,121,5.0,14.0,55,0.00,,,0.00,Weather View 32 v70,2013-07-06 18:44:00,
2013-07-06 14:49:00,92.7,74.6,30.04,SE,132,7.0,14.0,56,0.00,,,0.00,Weather View 32 v70,2013-07-06 18:49:00,
2013-07-06 14:54:00,92.2,74.2,30.04,SE,133,4.0,14.0,56,0.00,,,0.00,Weather View 32 v70,2013-07-06 18:54:00,
2013-07-06 15:00:00,92.0,74.5,30.04,SE,132,8.0,14.0,57,0.00,,,0.00,Weather View 32 v70,2013-07-06 19:00:00,
2013-07-06 15:05:00,92.1,74.6,30.04,SE,136,6.0,14.0,57,0.00,,,0.00,Weather View 32 v70,2013-07-06 19:05:00,
2013-07-06 15:10:00,92.3,74.8,30.03,ESE,107,0.0,14.0,57,0.00,,,0.00,Weather View 32 v70,2013-07-06 19:10:00,
2013-07-06 15:15:00,92.9,74.3,30.04,ESE,119,4.0,14.0,55,0.00,,,0.00,Weather View 32 v70,2013-07-06 19:15:00,
2013-07-06 15:21:00,93.0,73.8,30.03,SE,137,5.0,14.0,54,0.00,,,0.00,Weather View 32 v70,2013-07-06 19:21:00,
2013-07-06 15:29:00,92.7,73.5,30.03,SE,134,5.0,14.0,54,0.00,,,0.00,Weather View 32 v70,2013-07-06 19:29:00,
2013-07-06 15:35:00,92.8,73.6,30.03,East,100,1.0,14.0,54,0.00,,,0.00,Weather View 32 v70,2013-07-06 19:35:00,
2013-07-06 15:40:00,93.1,74.5,30.02,ESE,106,1.0,14.0,55,0.00,,,0.00,Weather View 32 v70,2013-07-06 19:40:00,
2013-07-06 15:45:00,92.7,73.5,30.02,ESE,116,4.0,12.0,54,0.00,,,0.00,Weather View 32 v70,2013-07-06 19:45:00,
2013-07-06 15:51:00,92.4,73.8,30.02,SE,132,4.0,12.0,55,0.00,,,0.00,Weather View 32 v70,2013-07-06 19:51:00,
2013-07-06 15:56:00,92.6,73.4,30.02,ESE,118,4.0,11.0,54,0.00,,,0.00,Weather View 32 v70,2013-07-06 19:56:00,
2013-07-06 16:02:00,92.7,74.1,30.02,SE,130,0.0,11.0,55,0.00,,,0.00,Weather View 32 v70,2013-07-06 20:02:00,
2013-07-06 16:09:00,91.2,78.6,30.02,SW,218,3.0,11.0,67,0.16,,,0.00,Weather View 32 v70,2013-07-06 20:09:00,
2013-07-06 16:14:00,89.8,78.2,30.02,SSW,210,4.0,11.0,69,0.00,,,0.00,Weather View 32 v70,2013-07-06 20:14:00,
2013-07-06 16:19:00,89.4,77.8,30.01,SSW,205,4.0,10.0,69,0.00,,,0.00,Weather View 32 v70,2013-07-06 20:19:00,
2013-07-06 16:24:00,89.7,78.6,30.02,SW,215,4.0,10.0,70,0.00,,,0.00,Weather View 32 v70,2013-07-06 20:24:00,
2013-07-06 16:29:00,89.5,77.5,30.02,SSW,203,2.0,12.0,68,0.00,,,0.00,Weather View 32 v70,2013-07-06 20:29:00,
2013-07-06 16:35:00,88.8,78.1,30.02,WSW,249,0.0,12.0,71,0.00,,,0.00,Weather View 32 v70,2013-07-06 20:35:00,
2013-07-06 16:40:00,88.5,77.8,30.02,SW,223,1.0,12.0,71,0.00,,,0.00,Weather View 32 v70,2013-07-06 20:40:00,
2013-07-06 16:45:00,88.4,77.7,30.02,West,271,2.0,12.0,71,0.00,,,0.00,Weather View 32 v70,2013-07-06 20:45:00,
2013-07-06 16:53:00,88.4,77.3,30.01,WSW,240,4.0,12.0,70,0.00,,,0.00,Weather View 32 v70,2013-07-06 20:53:00,
2013-07-06 16:58:00,88.3,77.2,30.01,West,267,0.0,12.0,70,0.16,,,0.00,Weather View 32 v70,2013-07-06 20:58:00,
2013-07-06 17:04:00,88.6,77.5,30.01,SW,227,0.0,12.0,70,0.00,,,0.00,Weather View 32 v70,2013-07-06 21:04:00,
2013-07-06 17:09:00,88.5,77.4,30.01,WSW,245,0.0,12.0,70,0.00,,,0.00,Weather View 32 v70,2013-07-06 21:09:00,
2013-07-06 17:15:00,87.9,76.8,30.01,West,261,1.0,12.0,70,0.00,,,0.00,Weather View 32 v70,2013-07-06 21:15:00,
2013-07-06 17:20:00,88.1,77.0,30.01,WSW,252,0.0,12.0,70,0.00,,,0.00,Weather View 32 v70,2013-07-06 21:20:00,
2013-07-06 17:25:00,88.3,76.8,30.01,SSW,200,5.0,12.0,69,0.00,,,0.00,Weather View 32 v70,2013-07-06 21:25:00,
2013-07-06 17:30:00,88.1,76.6,30.01,SW,219,0.0,9.0,69,0.00,,,0.00,Weather View 32 v70,2013-07-06 21:30:00,
2013-07-06 17:35:00,88.3,77.7,30.01,West,267,2.0,8.0,71,0.00,,,0.00,Weather View 32 v70,2013-07-06 21:35:00,
2013-07-06 17:40:00,88.6,78.4,30.01,SSW,207,5.0,8.0,72,0.00,,,0.00,Weather View 32 v70,2013-07-06 21:40:00,
2013-07-06 17:46:00,89.0,78.3,30.01,SSW,207,0.0,7.0,71,0.00,,,0.00,Weather View 32 v70,2013-07-06 21:46:00,
2013-07-06 17:51:00,89.3,78.6,30.01,SSW,200,6.0,8.0,71,0.00,,,0.00,Weather View 32 v70,2013-07-06 21:51:00,
2013-07-06 17:57:00,89.0,77.9,30.00,SSW,192,5.0,8.0,70,0.00,,,0.00,Weather View 32 v70,2013-07-06 21:57:00,
2013-07-06 18:02:00,89.0,77.9,30.00,SE,136,0.0,8.0,70,0.00,,,0.00,Weather View 32 v70,2013-07-06 22:02:00,
2013-07-06 18:07:00,89.2,77.6,30.00,SSW,198,0.0,8.0,69,0.00,,,0.00,Weather View 32 v70,2013-07-06 22:07:00,
2013-07-06 18:12:00,89.1,77.5,30.00,SSW,198,1.0,8.0,69,0.00,,,0.00,Weather View 32 v70,2013-07-06 22:12:00,
2013-07-06 18:17:00,88.7,77.2,30.00,SSW,199,0.0,8.0,69,0.00,,,0.00,Weather View 32 v70,2013-07-06 22:17:00,
2013-07-06 18:23:00,88.0,76.9,30.00,SSW,202,0.0,8.0,70,0.00,,,0.00,Weather View 32 v70,2013-07-06 22:23:00,
2013-07-06 18:28:00,87.0,76.4,30.00,SSW,209,0.0,8.0,71,0.00,,,0.00,Weather View 32 v70,2013-07-06 22:28:00,
2013-07-06 18:30:00,86.7,76.5,30.00,SSW,204,0.0,8.0,72,0.00,,,0.00,Weather View 32 v70,2013-07-06 22:30:00,
2013-07-06 18:34:00,86.3,76.6,30.00,SSW,204,0.0,8.0,73,0.00,,,0.00,Weather View 32 v70,2013-07-06 22:34:00,
2013-07-06 18:39:00,85.8,76.5,30.00,SSW,204,0.0,8.0,74,0.00,,,0.00,Weather View 32 v70,2013-07-06 22:39:00,
2013-07-06 18:44:00,85.6,76.3,30.00,SSW,204,0.0,8.0,74,0.00,,,0.00,Weather View 32 v70,2013-07-06 22:44:00,
2013-07-06 18:49:00,85.0,74.9,30.00,SSW,203,0.0,8.0,72,0.00,,,0.00,Weather View 32 v70,2013-07-06 22:49:00,
2013-07-06 18:55:00,84.6,74.9,30.01,SSW,204,0.0,7.0,73,0.00,,,0.00,Weather View 32 v70,2013-07-06 22:55:00,
2013-07-06 19:00:00,84.4,75.2,30.01,SSW,205,0.0,7.0,74,0.00,,,0.00,Weather View 32 v70,2013-07-06 23:00:00,
2013-07-06 19:05:00,84.3,75.5,30.01,SSW,205,0.0,7.0,75,0.00,,,0.00,Weather View 32 v70,2013-07-06 23:05:00,
2013-07-06 19:10:00,84.3,75.5,30.01,SSW,205,0.0,7.0,75,0.00,,,0.00,Weather View 32 v70,2013-07-06 23:10:00,
2013-07-06 19:16:00,84.3,75.5,30.01,SSW,204,0.0,7.0,75,0.00,,,0.00,Weather View 32 v70,2013-07-06 23:16:00,
2013-07-06 19:22:00,84.2,75.8,30.01,SSW,205,0.0,7.0,76,0.00,,,0.00,Weather View 32 v70,2013-07-06 23:22:00,
2013-07-06 19:28:00,84.1,75.7,30.01,SSW,205,0.0,6.0,76,0.00,,,0.00,Weather View 32 v70,2013-07-06 23:28:00,
2013-07-06 19:30:00,84.1,75.7,30.01,SSW,205,0.0,6.0,76,0.00,,,0.00,Weather View 32 v70,2013-07-06 23:30:00,
2013-07-06 19:33:00,84.0,75.2,30.01,SSW,205,0.0,6.0,75,0.00,,,0.00,Weather View 32 v70,2013-07-06 23:33:00,
2013-07-06 19:38:00,84.1,75.3,30.02,SSW,205,0.0,4.0,75,0.00,,,0.00,Weather View 32 v70,2013-07-06 23:38:00,
2013-07-06 19:44:00,84.1,75.3,30.02,SSW,205,0.0,4.0,75,0.00,,,0.00,Weather View 32 v70,2013-07-06 23:44:00,
2013-07-06 19:49:00,84.2,75.4,30.02,SSW,205,0.0,4.0,75,0.00,,,0.00,Weather View 32 v70,2013-07-06 23:49:00,
2013-07-06 19:54:00,84.4,75.6,30.02,SSW,205,0.0,4.0,75,0.00,,,0.00,Weather View 32 v70,2013-07-06 23:54:00,
2013-07-06 20:00:00,84.4,75.6,30.02,SSW,205,0.0,1.0,75,0.00,,,0.00,Weather View 32 v70,2013-07-07 00:00:00,
2013-07-06 20:05:00,84.4,75.6,30.02,SSW,205,0.0,1.0,75,0.00,,,0.00,Weather View 32 v70,2013-07-07 00:05:00,
2013-07-06 20:10:00,84.3,75.5,30.02,SSW,205,0.0,1.0,75,0.00,,,0.00,Weather View 32 v70,2013-07-07 00:10:00,
2013-07-06 20:15:00,84.2,75.4,30.02,SSW,205,0.0,1.0,75,0.00,,,0.00,Weather View 32 v70,2013-07-07 00:15:00,
2013-07-06 20:21:00,84.1,75.7,30.03,SSW,205,0.0,0.0,76,0.00,,,0.00,Weather View 32 v70,2013-07-07 00:21:00,
2013-07-06 20:26:00,83.9,75.5,30.03,SSW,205,0.0,0.0,76,0.00,,,0.00,Weather View 32 v70,2013-07-07 00:26:00,
2013-07-06 20:31:00,83.7,75.3,30.03,SSW,203,0.0,0.0,76,0.00,,,0.00,Weather View 32 v70,2013-07-07 00:31:00,
2013-07-06 20:36:00,83.4,75.4,30.03,SSW,204,0.0,0.0,77,0.00,,,0.00,Weather View 32 v70,2013-07-07 00:36:00,
2013-07-06 20:42:00,83.2,75.6,30.03,SSW,205,0.0,1.0,78,0.00,,,0.00,Weather View 32 v70,2013-07-07 00:42:00,
2013-07-06 20:47:00,83.0,75.4,30.03,SSW,205,0.0,1.0,78,0.00,,,0.00,Weather View 32 v70,2013-07-07 00:47:00,
2013-07-06 20:52:00,82.8,75.6,30.04,SSW,205,0.0,1.0,79,0.00,,,0.00,Weather View 32 v70,2013-07-07 00:52:00,
2013-07-06 20:58:00,82.6,75.4,30.04,SSW,205,0.0,1.0,79,0.00,,,0.00,Weather View 32 v70,2013-07-07 00:58:00,
2013-07-06 21:03:00,82.4,75.2,30.04,SSW,204,0.0,1.0,79,0.00,,,0.00,Weather View 32 v70,2013-07-07 01:03:00,
2013-07-06 21:08:00,82.3,75.5,30.05,SSW,205,0.0,1.0,80,0.00,,,0.00,Weather View 32 v70,2013-07-07 01:08:00,
2013-07-06 21:13:00,82.1,75.3,30.05,SSW,205,0.0,1.0,80,0.00,,,0.00,Weather View 32 v70,2013-07-07 01:13:00,
2013-07-06 21:18:00,82.0,75.6,30.04,SSW,205,0.0,1.0,81,0.00,,,0.00,Weather View 32 v70,2013-07-07 01:18:00,
2013-07-06 21:23:00,81.9,75.5,30.05,SSW,205,0.0,1.0,81,0.00,,,0.00,Weather View 32 v70,2013-07-07 01:23:00,
2013-07-06 21:29:00,81.8,75.4,30.04,SSW,205,0.0,1.0,81,0.00,,,0.00,Weather View 32 v70,2013-07-07 01:29:00,
2013-07-06 21:30:00,81.7,75.3,30.04,SSW,205,0.0,1.0,81,0.00,,,0.00,Weather View 32 v70,2013-07-07 01:30:00,
2013-07-06 21:36:00,81.6,75.2,30.05,SSW,205,0.0,1.0,81,0.00,,,0.00,Weather View 32 v70,2013-07-07 01:36:00,
2013-07-06 21:41:00,81.5,75.4,30.05,SSW,205,0.0,0.0,82,0.00,,,0.00,Weather View 32 v70,2013-07-07 01:41:00,
2013-07-06 21:47:00,81.4,75.7,30.06,SSW,205,0.0,0.0,83,0.00,,,0.00,Weather View 32 v70,2013-07-07 01:47:00,
2013-07-06 21:53:00,81.5,75.8,30.06,SSW,205,0.0,3.0,83,0.00,,,0.00,Weather View 32 v70,2013-07-07 01:53:00,
2013-07-06 21:58:00,81.5,75.4,30.06,SSW,205,0.0,3.0,82,0.00,,,0.00,Weather View 32 v70,2013-07-07 01:58:00,
2013-07-06 22:03:00,81.6,75.5,30.07,SSW,205,0.0,3.0,82,0.00,,,0.00,Weather View 32 v70,2013-07-07 02:03:00,
2013-07-06 22:08:00,81.7,76.0,30.06,SSW,205,0.0,3.0,83,0.00,,,0.00,Weather View 32 v70,2013-07-07 02:08:00,
2013-07-06 22:14:00,81.7,75.6,30.06,SSW,205,0.0,3.0,82,0.00,,,0.00,Weather View 32 v70,2013-07-07 02:14:00,
2013-07-06 22:19:00,81.8,75.7,30.07,SSW,205,0.0,3.0,82,0.00,,,0.00,Weather View 32 v70,2013-07-07 02:19:00,
2013-07-06 22:24:00,81.8,75.7,30.07,SSW,205,0.0,3.0,82,0.00,,,0.00,Weather View 32 v70,2013-07-07 02:24:00,
2013-07-06 22:30:00,81.7,75.6,30.07,SSW,205,0.0,3.0,82,0.00,,,0.00,Weather View 32 v70,2013-07-07 02:30:00,
2013-07-06 22:37:00,81.7,75.6,30.07,SSW,205,0.0,3.0,82,0.00,,,0.00,Weather View 32 v70,2013-07-07 02:37:00,
2013-07-06 22:42:00,81.6,75.9,30.08,SSW,205,0.0,3.0,83,0.00,,,0.00,Weather View 32 v70,2013-07-07 02:42:00,
2013-07-06 22:47:00,81.5,75.4,30.08,SSW,205,0.0,3.0,82,0.00,,,0.00,Weather View 32 v70,2013-07-07 02:47:00,
2013-07-06 22:52:00,81.4,75.7,30.08,SSW,204,0.0,1.0,83,0.00,,,0.00,Weather View 32 v70,2013-07-07 02:52:00,
2013-07-06 22:57:00,81.3,75.6,30.08,SSW,205,0.0,0.0,83,0.00,,,0.00,Weather View 32 v70,2013-07-07 02:57:00,
2013-07-06 23:03:00,81.3,75.6,30.08,SSW,203,0.0,0.0,83,0.00,,,0.00,Weather View 32 v70,2013-07-07 03:03:00,
2013-07-06 23:08:00,81.2,75.5,30.08,SSW,205,0.0,0.0,83,0.00,,,0.00,Weather View 32 v70,2013-07-07 03:08:00,
2013-07-06 23:13:00,81.1,75.4,30.08,SSW,205,0.0,0.0,83,0.00,,,0.00,Weather View 32 v70,2013-07-07 03:13:00,
2013-07-06 23:19:00,81.1,75.4,30.08,SSW,205,0.0,0.0,83,0.00,,,0.00,Weather View 32 v70,2013-07-07 03:19:00,
2013-07-06 23:24:00,81.3,75.2,30.08,SE,132,0.0,5.0,82,0.00,,,0.00,Weather View 32 v70,2013-07-07 03:24:00,
2013-07-06 23:29:00,81.4,75.0,30.08,SE,131,0.0,5.0,81,0.00,,,0.00,Weather View 32 v70,2013-07-07 03:29:00,
2013-07-06 23:35:00,81.4,75.0,30.08,SE,128,0.0,5.0,81,0.00,,,0.00,Weather View 32 v70,2013-07-07 03:35:00,
2013-07-06 23:41:00,81.5,74.7,30.08,SE,125,0.0,5.0,80,0.00,,,0.00,Weather View 32 v70,2013-07-07 03:41:00,
2013-07-06 23:46:00,81.5,74.7,30.08,SE,126,0.0,5.0,80,0.00,,,0.00,Weather View 32 v70,2013-07-07 03:46:00,
2013-07-06 23:52:00,81.4,74.6,30.08,SE,126,2.0,5.0,80,0.00,,,0.00,Weather View 32 v70,2013-07-07 03:52:00,
2013-07-06 23:57:00,81.4,74.6,30.08,SE,126,2.0,5.0,80,0.00,,,0.00,Weather View 32 v70,2013-07-07 03:57:00,